createdAt,value
2023-03-11T00:01:32.027Z,98878.28
2023-03-11T00:03:58.989Z,98894.06
2023-03-11T00:06:25.520Z,98893.75
2023-03-11T00:08:52.341Z,98906.34
2023-03-11T00:11:19.781Z,98918.97
2023-03-11T00:13:46.216Z,98914.88
2023-03-11T00:16:12.685Z,98945.81
2023-03-11T00:18:39.129Z,98935.59
2023-03-11T00:21:05.656Z,98948.81
2023-03-11T00:23:32.650Z,98961.78
2023-03-11T00:26:01.139Z,98967.72
2023-03-11T00:28:27.704Z,98972.66
2023-03-11T00:30:54.468Z,98985.41
2023-03-11T00:33:20.988Z,98978.50
2023-03-11T00:35:47.646Z,98993.25
2023-03-11T00:38:16.537Z,98994.16
2023-03-11T00:40:44.761Z,99005.66
2023-03-11T00:43:11.737Z,99017.97
2023-03-11T00:45:38.161Z,99012.63
2023-03-11T00:48:05.392Z,99022.97
2023-03-11T00:50:33.988Z,99026.91
2023-03-11T00:53:01.510Z,99033.84
2023-03-11T00:55:30.863Z,99050.56
2023-03-11T00:58:00.166Z,99051.38
2023-03-11T01:00:28.574Z,99069.06
2023-03-11T01:02:56.343Z,99058.34
2023-03-11T01:05:27.073Z,99064.16
2023-03-11T01:07:53.489Z,99072.81
2023-03-11T01:10:20.494Z,99076.22
2023-03-11T01:12:47.287Z,99089.19
2023-03-11T01:15:26.619Z,99093.16
2023-03-11T01:17:53.076Z,99104.69
2023-03-11T01:20:19.789Z,99108.91
2023-03-11T01:22:46.310Z,99118.19
2023-03-11T01:25:15.019Z,99117.94
2023-03-11T01:27:41.586Z,99132.78
2023-03-11T01:30:09.494Z,99134.06
2023-03-11T01:32:36.096Z,99140.69
2023-03-11T01:35:02.542Z,99139.59
2023-03-11T01:37:29.645Z,99141.47
2023-03-11T01:39:56.057Z,99153.28
2023-03-11T01:42:22.468Z,99153.50
2023-03-11T01:44:48.859Z,99173.25
2023-03-11T01:47:15.186Z,99189.00
2023-03-11T01:49:42.172Z,99193.13
2023-03-11T01:52:09.045Z,99197.63
2023-03-11T01:54:39.570Z,99199.84
2023-03-11T01:57:09.998Z,99211.81
2023-03-11T01:59:41.883Z,99216.31
2023-03-11T02:02:19.516Z,99222.91
2023-03-11T02:04:46.508Z,99214.94
2023-03-11T02:07:14.149Z,99228.06
2023-03-11T02:09:41.773Z,99230.34
2023-03-11T02:12:10.927Z,99245.59
2023-03-11T02:14:41.867Z,99242.84
2023-03-11T02:17:08.864Z,99251.44
2023-03-11T02:19:48.338Z,99257.41
2023-03-11T02:22:15.885Z,99263.22
2023-03-11T02:25:03.099Z,99270.22
2023-03-11T02:27:32.955Z,99272.91
2023-03-11T02:30:00.960Z,99276.50
2023-03-11T02:32:28.122Z,99278.91
2023-03-11T02:34:54.661Z,99282.44
2023-03-11T02:37:21.092Z,99284.78
2023-03-11T02:39:50.558Z,99292.41
2023-03-11T02:42:31.740Z,99294.38
2023-03-11T02:45:01.011Z,99297.31
2023-03-11T02:47:27.950Z,99298.44
2023-03-11T02:49:56.272Z,99301.38
2023-03-11T02:52:25.555Z,99298.25
2023-03-11T02:54:51.990Z,99303.09
2023-03-11T02:57:18.536Z,99307.78
2023-03-11T02:59:45.027Z,99318.84
2023-03-11T03:02:11.572Z,99332.03
2023-03-11T03:04:37.998Z,99334.72
2023-03-11T03:07:04.537Z,99343.16
2023-03-11T03:09:31.249Z,99331.13
2023-03-11T03:11:57.659Z,99343.34
2023-03-11T03:14:24.109Z,99339.19
2023-03-11T03:16:50.666Z,99346.78
2023-03-11T03:19:17.175Z,99348.00
2023-03-11T03:21:43.587Z,99364.00
2023-03-11T03:24:10.037Z,99362.56
2023-03-11T03:26:37.477Z,99366.94
2023-03-11T03:29:05.440Z,99374.72
2023-03-11T03:31:32.295Z,99380.06
2023-03-11T03:33:59.102Z,99376.28
2023-03-11T03:36:25.593Z,99384.34
2023-03-11T03:38:56.646Z,99384.34
2023-03-11T03:41:23.489Z,99397.03
2023-03-11T03:43:50.037Z,99403.09
2023-03-11T03:46:16.558Z,99408.13
2023-03-11T03:48:43.144Z,99402.22
2023-03-11T03:51:12.684Z,99409.28
2023-03-11T03:53:40.152Z,99421.16
2023-03-11T03:56:12.378Z,99428.06
2023-03-11T03:58:39.442Z,99435.00
2023-03-11T04:01:06.937Z,99435.00
2023-03-11T04:03:35.112Z,99441.69
2023-03-11T04:06:16.482Z,99445.34
2023-03-11T04:08:43.030Z,99441.72
2023-03-11T04:11:09.505Z,99436.31
2023-03-11T04:13:36.095Z,99448.94
2023-03-11T04:16:07.408Z,99445.81
2023-03-11T04:18:35.336Z,99451.72
2023-03-11T04:21:06.600Z,99455.22
2023-03-11T04:23:33.703Z,99455.81
2023-03-11T04:26:00.493Z,99462.31
2023-03-11T04:28:27.080Z,99468.34
2023-03-11T04:30:53.560Z,99471.06
2023-03-11T04:33:20.582Z,99480.41
2023-03-11T04:35:47.188Z,99474.81
2023-03-11T04:38:13.657Z,99479.38
2023-03-11T04:40:40.282Z,99488.50
2023-03-11T04:43:07.089Z,99479.00
2023-03-11T04:45:33.590Z,99493.38
2023-03-11T04:48:00.013Z,99494.84
2023-03-11T04:50:26.517Z,99493.56
2023-03-11T04:52:52.996Z,99500.22
2023-03-11T04:55:19.393Z,99505.41
2023-03-11T04:57:45.827Z,99503.88
2023-03-11T05:00:13.318Z,99501.56
2023-03-11T05:02:40.223Z,99519.06
2023-03-11T05:05:08.342Z,99520.53
2023-03-11T05:07:35.574Z,99517.44
2023-03-11T05:10:03.373Z,99513.41
2023-03-11T05:12:29.775Z,99532.00
2023-03-11T05:14:56.335Z,99533.38
2023-03-11T05:17:22.849Z,99539.97
2023-03-11T05:19:49.370Z,99547.88
2023-03-11T05:22:15.762Z,99555.97
2023-03-11T05:24:42.179Z,99552.72
2023-03-11T05:27:08.744Z,99561.91
2023-03-11T05:29:35.214Z,99576.16
2023-03-11T05:32:01.627Z,99568.88
2023-03-11T05:34:28.145Z,99567.50
2023-03-11T05:36:54.611Z,99581.00
2023-03-11T05:39:21.066Z,99575.53
2023-03-11T05:41:47.532Z,99587.53
2023-03-11T05:44:14.084Z,99592.94
2023-03-11T05:46:40.560Z,99592.28
2023-03-11T05:49:07.002Z,99600.63
2023-03-11T05:51:33.511Z,99598.28
2023-03-11T05:54:00.451Z,99604.19
2023-03-11T05:56:26.920Z,99611.69
2023-03-11T05:58:53.357Z,99612.50
2023-03-11T06:01:20.786Z,99609.50
2023-03-11T06:03:47.283Z,99613.53
2023-03-11T06:06:14.346Z,99613.19
2023-03-11T06:08:45.922Z,99618.66
2023-03-11T06:11:13.488Z,99612.09
2023-03-11T06:13:40.043Z,99611.75
2023-03-11T06:16:06.970Z,99619.81
2023-03-11T06:18:33.559Z,99628.50
2023-03-11T06:21:01.706Z,99634.91
2023-03-11T06:23:29.069Z,99628.00
2023-03-11T06:26:04.668Z,99634.69
2023-03-11T06:28:31.864Z,99637.50
2023-03-11T06:31:08.229Z,99640.94
2023-03-11T06:33:34.700Z,99650.81
2023-03-11T06:36:02.969Z,99663.06
2023-03-11T06:38:30.184Z,99666.25
2023-03-11T06:41:01.121Z,99675.59
2023-03-11T06:43:27.605Z,99686.34
2023-03-11T06:45:54.154Z,99693.56
2023-03-11T06:48:20.684Z,99693.66
2023-03-11T06:50:57.662Z,99710.78
2023-03-11T06:53:26.489Z,99718.28
2023-03-11T06:56:04.137Z,99719.25
2023-03-11T06:58:32.137Z,99721.75
2023-03-11T07:01:03.898Z,99723.56
2023-03-11T07:03:30.537Z,99739.84
2023-03-11T07:05:58.443Z,99736.31
2023-03-11T07:08:25.742Z,99743.38
2023-03-11T07:11:01.037Z,99738.22
2023-03-11T07:13:28.549Z,99740.94
2023-03-11T07:16:13.174Z,99748.28
2023-03-11T07:18:39.656Z,99755.53
2023-03-11T07:21:08.680Z,99758.06
2023-03-11T07:23:35.905Z,99769.44
2023-03-11T07:26:02.518Z,99770.22
2023-03-11T07:28:29.624Z,99779.28
2023-03-11T07:30:56.100Z,99780.25
2023-03-11T07:33:26.135Z,99783.63
2023-03-11T07:35:53.147Z,99793.16
2023-03-11T07:38:19.889Z,99793.28
2023-03-11T07:40:46.404Z,99797.44
2023-03-11T07:43:12.897Z,99807.22
2023-03-11T07:45:39.365Z,99809.81
2023-03-11T07:48:06.015Z,99814.91
2023-03-11T07:50:32.471Z,99815.97
2023-03-11T07:52:58.859Z,99827.81
2023-03-11T07:55:25.464Z,99818.81
2023-03-11T07:57:52.051Z,99821.03
2023-03-11T08:00:19.135Z,99821.84
2023-03-11T08:02:45.748Z,99828.78
2023-03-11T08:05:12.626Z,99826.56
2023-03-11T08:07:39.367Z,99838.16
2023-03-11T08:10:06.647Z,99835.28
2023-03-11T08:12:33.122Z,99835.25
2023-03-11T08:14:59.515Z,99843.06
2023-03-11T08:17:25.917Z,99850.44
2023-03-11T08:19:52.376Z,99858.09
2023-03-11T08:22:18.838Z,99870.19
2023-03-11T08:24:45.258Z,99870.38
2023-03-11T08:27:12.325Z,99876.84
2023-03-11T08:29:38.802Z,99879.16
2023-03-11T08:32:05.655Z,99884.25
2023-03-11T08:34:32.898Z,99886.31
2023-03-11T08:36:59.564Z,99884.81
2023-03-11T08:39:25.974Z,99895.53
2023-03-11T08:41:52.394Z,99900.94
2023-03-11T08:44:18.834Z,99902.47
2023-03-11T08:46:45.725Z,99914.72
2023-03-11T08:49:12.233Z,99911.50
2023-03-11T08:51:38.683Z,99916.09
2023-03-11T08:54:05.691Z,99919.66
2023-03-11T08:56:32.203Z,99921.31
2023-03-11T08:58:58.836Z,99929.44
2023-03-11T09:01:25.645Z,99937.44
2023-03-11T09:03:52.605Z,99939.28
2023-03-11T09:06:19.198Z,99950.41
2023-03-11T09:08:47.063Z,99949.84
2023-03-11T09:13:49.841Z,99957.91
2023-03-11T09:16:19.063Z,99958.44
2023-03-11T09:18:45.895Z,99962.84
2023-03-11T09:21:12.981Z,99960.56
2023-03-11T09:23:43.501Z,99975.69
2023-03-11T09:26:10.627Z,99969.47
2023-03-11T09:28:37.119Z,99974.59
2023-03-11T09:31:03.696Z,99982.50
2023-03-11T09:33:30.248Z,99986.78
2023-03-11T09:35:58.217Z,99989.94
2023-03-11T09:38:24.681Z,99986.47
2023-03-11T09:41:02.668Z,99988.59
2023-03-11T09:43:55.955Z,99992.78
2023-03-11T09:46:40.724Z,99989.75
2023-03-11T09:49:41.612Z,100000.28
2023-03-11T09:52:16.384Z,99999.91
2023-03-11T09:54:47.194Z,100003.19
2023-03-11T09:57:19.379Z,100007.34
2023-03-11T09:59:46.882Z,100016.13
2023-03-11T10:02:20.099Z,100021.00
2023-03-11T10:05:03.544Z,100014.19
2023-03-11T10:07:39.426Z,100018.50
2023-03-11T10:10:07.314Z,100012.91
2023-03-11T10:12:39.706Z,100024.03
2023-03-11T10:15:24.866Z,100033.31
2023-03-11T10:18:20.396Z,100032.63
2023-03-11T10:21:00.163Z,100036.25
2023-03-11T10:23:31.196Z,100029.53
2023-03-11T10:26:08.012Z,100042.25
2023-03-11T10:29:07.534Z,100042.16
2023-03-11T10:31:57.126Z,100042.84
2023-03-11T10:34:34.226Z,100037.41
2023-03-11T10:37:09.265Z,100043.75
2023-03-11T10:39:36.501Z,100045.34
2023-03-11T10:42:05.462Z,100049.13
2023-03-11T10:44:38.487Z,100047.75
2023-03-11T10:47:06.276Z,100055.59
2023-03-11T10:49:32.909Z,100045.75
2023-03-11T10:51:59.494Z,100054.72
2023-03-11T10:54:26.581Z,100059.69
2023-03-11T10:57:03.670Z,100067.59
2023-03-11T10:59:31.982Z,100061.28
2023-03-11T11:02:01.070Z,100070.00
2023-03-11T11:04:29.906Z,100076.38
2023-03-11T11:06:56.597Z,100072.94
2023-03-11T11:09:26.823Z,100061.66
2023-03-11T11:12:04.812Z,100081.44
2023-03-11T11:14:52.642Z,100065.97
2023-03-11T11:17:31.588Z,100058.66
2023-03-11T11:19:59.298Z,100063.78
2023-03-11T11:22:25.941Z,100070.69
2023-03-11T11:24:54.992Z,100065.19
2023-03-11T11:27:22.610Z,100067.34
2023-03-11T11:30:09.561Z,100064.19
2023-03-11T11:32:37.276Z,100072.53
2023-03-11T11:35:12.773Z,100069.94
2023-03-11T11:37:43.710Z,100070.56
2023-03-11T11:40:16.582Z,100080.03
2023-03-11T11:42:54.924Z,100073.69
2023-03-11T11:45:39.960Z,100075.81
2023-03-11T11:48:13.152Z,100072.06
2023-03-11T11:50:47.920Z,100077.34
2023-03-11T11:53:35.795Z,100078.19
2023-03-11T11:56:02.741Z,100075.28
2023-03-11T11:58:31.227Z,100073.53
2023-03-11T12:01:13.013Z,100076.97
2023-03-11T12:04:06.666Z,100073.19
2023-03-11T12:06:35.771Z,100080.88
2023-03-11T12:09:11.514Z,100080.41
2023-03-11T12:11:42.060Z,100078.66
2023-03-11T12:14:21.515Z,100073.56
2023-03-11T12:16:58.633Z,100078.78
2023-03-11T12:19:33.944Z,100079.72
2023-03-11T12:22:00.462Z,100072.41
2023-03-11T12:25:02.574Z,100068.78
2023-03-11T12:27:41.385Z,100072.41
2023-03-11T12:30:18.241Z,100076.75
2023-03-11T12:32:53.151Z,100077.97
2023-03-11T12:35:33.037Z,100070.66
2023-03-11T12:38:13.504Z,100078.19
2023-03-11T12:41:09.250Z,100065.97
2023-03-11T12:43:35.659Z,100076.91
2023-03-11T12:46:04.465Z,100073.22
2023-03-11T12:48:46.746Z,100066.13
2023-03-11T12:51:37.314Z,100067.25
2023-03-11T12:54:32.051Z,100073.72
2023-03-11T12:57:05.497Z,100078.19
2023-03-11T12:59:38.435Z,100065.19
2023-03-11T13:02:07.652Z,100063.88
2023-03-11T13:04:44.138Z,100069.53
2023-03-11T13:07:22.525Z,100071.31
2023-03-11T13:10:35.069Z,100064.00
2023-03-11T13:13:02.062Z,100068.72
2023-03-11T13:15:36.418Z,100075.66
2023-03-11T13:18:23.390Z,100083.97
2023-03-11T13:20:57.206Z,100073.06
2023-03-11T13:23:29.724Z,100083.47
2023-03-11T13:26:14.190Z,100087.97
2023-03-11T13:28:58.582Z,100088.88
2023-03-11T13:32:02.721Z,100094.19
2023-03-11T13:34:59.668Z,100084.47
2023-03-11T13:37:35.007Z,100088.56
2023-03-11T13:40:23.587Z,100102.75
2023-03-11T13:42:51.987Z,100091.53
2023-03-11T13:45:29.791Z,100101.22
2023-03-11T13:47:59.967Z,100109.56
2023-03-11T13:50:31.650Z,100096.31
2023-03-11T13:53:01.166Z,100102.06
2023-03-11T13:55:40.220Z,100109.84
2023-03-11T13:58:17.373Z,100112.59
2023-03-11T14:00:49.989Z,100108.38
2023-03-11T14:03:21.970Z,100114.16
2023-03-11T14:05:55.843Z,100122.91
2023-03-11T14:08:27.260Z,100112.56
2023-03-11T14:11:03.480Z,100120.75
2023-03-11T14:13:31.956Z,100121.22
2023-03-11T14:16:08.749Z,100133.50
2023-03-11T14:18:35.385Z,100122.47
2023-03-11T14:21:04.608Z,100117.19
2023-03-11T14:23:35.163Z,100127.56
2023-03-11T14:26:07.623Z,100127.44
2023-03-11T14:28:38.654Z,100128.25
2023-03-11T14:31:05.893Z,100130.38
2023-03-11T14:33:32.424Z,100138.47
2023-03-11T14:36:02.556Z,100126.41
2023-03-11T14:38:31.649Z,100129.44
2023-03-11T14:41:04.629Z,100137.00
2023-03-11T14:43:39.117Z,100137.97
2023-03-11T14:46:07.426Z,100141.38
2023-03-11T14:48:39.022Z,100145.13
2023-03-11T14:51:14.801Z,100148.59
2023-03-11T14:53:46.668Z,100141.78
2023-03-11T14:56:19.041Z,100151.91
2023-03-11T14:59:12.465Z,100153.41
2023-03-11T15:01:41.718Z,100148.06
2023-03-11T15:04:32.795Z,100152.25
2023-03-11T15:07:00.457Z,100153.13
2023-03-11T15:09:29.253Z,100137.94
2023-03-11T15:11:59.123Z,100140.84
2023-03-11T15:14:33.986Z,100146.84
2023-03-11T15:17:37.087Z,100151.84
2023-03-11T15:20:23.705Z,100152.59
2023-03-11T15:23:00.688Z,100154.78
2023-03-11T15:25:29.789Z,100160.28
2023-03-11T15:27:56.544Z,100162.81
2023-03-11T15:30:31.444Z,100161.84
2023-03-11T15:32:58.899Z,100150.34
2023-03-11T15:35:30.862Z,100151.19
2023-03-11T15:38:28.416Z,100161.34
2023-03-11T15:41:01.083Z,100162.84
2023-03-11T15:43:33.051Z,100157.50
2023-03-11T15:46:02.285Z,100159.00
2023-03-11T15:48:29.995Z,100161.22
2023-03-11T15:50:58.813Z,100158.94
2023-03-11T15:53:27.587Z,100167.06
2023-03-11T15:56:06.230Z,100154.19
2023-03-11T15:58:33.592Z,100159.25
2023-03-11T16:01:00.249Z,100166.84
2023-03-11T16:03:26.729Z,100172.56
2023-03-11T16:05:53.228Z,100168.88
2023-03-11T16:08:19.721Z,100176.16
2023-03-11T16:10:46.319Z,100162.78
2023-03-11T16:13:15.022Z,100169.00
2023-03-11T16:15:42.637Z,100164.72
2023-03-11T16:18:09.958Z,100171.44
2023-03-11T16:20:46.406Z,100175.97
2023-03-11T16:23:50.705Z,100178.59
2023-03-11T16:26:18.215Z,100181.31
2023-03-11T16:28:44.740Z,100188.66
2023-03-11T16:31:11.225Z,100183.00
2023-03-11T16:33:37.697Z,100182.53
2023-03-11T16:36:05.360Z,100184.16
2023-03-11T16:38:43.046Z,100186.47
2023-03-11T16:41:09.523Z,100190.06
2023-03-11T16:43:35.975Z,100193.81
2023-03-11T16:46:02.361Z,100193.69
2023-03-11T16:48:28.828Z,100199.94
2023-03-11T16:50:55.307Z,100204.38
2023-03-11T16:53:21.967Z,100200.34
2023-03-11T16:55:48.588Z,100204.41
2023-03-11T16:58:15.449Z,100205.75
2023-03-11T17:00:42.480Z,100203.47
2023-03-11T17:03:12.290Z,100210.94
2023-03-11T17:05:38.880Z,100211.78
2023-03-11T17:08:06.315Z,100214.19
2023-03-11T17:10:38.192Z,100215.53
2023-03-11T17:13:05.968Z,100216.94
2023-03-11T17:15:34.504Z,100225.22
2023-03-11T17:18:01.787Z,100225.06
2023-03-11T17:20:28.208Z,100221.59
2023-03-11T17:22:54.625Z,100215.78
2023-03-11T17:25:21.129Z,100228.00
2023-03-11T17:27:47.732Z,100228.59
2023-03-11T17:30:19.395Z,100217.75
2023-03-11T17:32:50.956Z,100225.13
2023-03-11T17:35:17.543Z,100223.69
2023-03-11T17:37:43.930Z,100224.84
2023-03-11T17:40:11.150Z,100228.69
2023-03-11T17:42:39.679Z,100228.00
2023-03-11T17:45:06.765Z,100224.97
2023-03-11T17:47:33.440Z,100217.09
2023-03-11T17:50:00.112Z,100226.50
2023-03-11T17:52:26.567Z,100223.97
2023-03-11T17:54:53.520Z,100228.97
2023-03-11T17:57:20.039Z,100231.19
2023-03-11T17:59:50.482Z,100232.09
2023-03-11T18:02:16.937Z,100236.78
2023-03-11T18:04:45.951Z,100242.34
2023-03-11T18:07:12.926Z,100241.56
2023-03-11T18:09:39.395Z,100254.78
2023-03-11T18:12:06.773Z,100243.66
2023-03-11T18:14:33.524Z,100245.47
2023-03-11T18:16:59.938Z,100249.53
2023-03-11T18:19:26.351Z,100251.16
2023-03-11T18:21:52.795Z,100246.69
2023-03-11T18:24:19.290Z,100254.88
2023-03-11T18:26:45.704Z,100259.59
2023-03-11T18:29:12.334Z,100263.50
2023-03-11T18:31:39.492Z,100261.25
2023-03-11T18:34:12.140Z,100262.44
2023-03-11T18:36:39.077Z,100268.69
2023-03-11T18:39:06.445Z,100259.28
2023-03-11T18:41:35.502Z,100260.75
2023-03-11T18:44:02.704Z,100269.38
2023-03-11T18:46:33.745Z,100266.72
2023-03-11T18:49:02.007Z,100275.41
2023-03-11T18:51:31.059Z,100278.28
2023-03-11T18:53:57.768Z,100273.88
2023-03-11T18:56:24.260Z,100274.06
2023-03-11T18:58:50.740Z,100277.47
2023-03-11T19:01:21.566Z,100277.38
2023-03-11T19:03:56.792Z,100276.69
2023-03-11T19:06:24.815Z,100281.88
2023-03-11T19:08:51.905Z,100275.34
2023-03-11T19:11:20.717Z,100280.59
2023-03-11T19:13:48.290Z,100276.59
2023-03-11T19:16:17.876Z,100276.94
2023-03-11T19:18:44.380Z,100281.50
2023-03-11T19:21:12.420Z,100282.41
2023-03-11T19:23:38.942Z,100273.72
2023-03-11T19:26:06.037Z,100277.50
2023-03-11T19:28:32.679Z,100271.19
2023-03-11T19:30:59.714Z,100279.44
2023-03-11T19:33:26.478Z,100284.78
2023-03-11T19:36:01.088Z,100279.28
2023-03-11T19:38:28.448Z,100282.69
2023-03-11T19:41:07.080Z,100283.72
2023-03-11T19:43:38.226Z,100287.06
2023-03-11T19:46:06.344Z,100287.47
2023-03-11T19:48:33.124Z,100282.16
2023-03-11T19:50:59.905Z,100275.44
2023-03-11T19:53:27.263Z,100280.69
2023-03-11T19:55:56.325Z,100285.03
2023-03-11T19:58:24.226Z,100287.50
2023-03-11T20:00:51.190Z,100288.28
2023-03-11T20:03:18.610Z,100290.19
2023-03-11T20:05:46.860Z,100293.03
2023-03-11T20:08:16.899Z,100295.19
2023-03-11T20:10:46.493Z,100304.06
2023-03-11T20:13:14.416Z,100305.59
2023-03-11T20:15:41.159Z,100309.00
2023-03-11T20:18:07.825Z,100298.44
2023-03-11T20:20:37.290Z,100305.84
2023-03-11T20:23:03.951Z,100299.13
2023-03-11T20:25:32.323Z,100304.22
2023-03-11T20:27:59.953Z,100299.59
2023-03-11T20:30:27.303Z,100296.34
2023-03-11T20:32:54.354Z,100300.50
2023-03-11T20:35:21.659Z,100299.22
2023-03-11T20:37:48.239Z,100296.94
2023-03-11T20:40:16.477Z,100301.00
2023-03-11T20:42:46.704Z,100292.41
2023-03-11T20:45:21.484Z,100298.59
2023-03-11T20:47:49.230Z,100292.91
2023-03-11T20:50:15.999Z,100306.84
2023-03-11T20:52:42.608Z,100298.28
2023-03-11T20:55:10.193Z,100294.72
2023-03-11T20:57:37.432Z,100315.72
2023-03-11T21:00:11.540Z,100309.47
2023-03-11T21:02:39.924Z,100310.47
2023-03-11T21:05:08.117Z,100305.91
2023-03-11T21:07:34.675Z,100310.47
2023-03-11T21:10:02.109Z,100306.28
2023-03-11T21:12:31.125Z,100304.44
2023-03-11T21:14:57.944Z,100294.72
2023-03-11T21:17:24.545Z,100309.00
2023-03-11T21:19:51.057Z,100309.94
2023-03-11T21:22:17.591Z,100307.84
2023-03-11T21:24:45.223Z,100314.22
2023-03-11T21:27:11.806Z,100300.19
2023-03-11T21:29:38.427Z,100297.66
2023-03-11T21:32:05.222Z,100299.44
2023-03-11T21:34:31.717Z,100312.78
2023-03-11T21:36:58.426Z,100313.06
2023-03-11T21:39:25.108Z,100311.66
2023-03-11T21:41:53.289Z,100308.34
2023-03-11T21:44:20.023Z,100313.97
2023-03-11T21:46:46.670Z,100314.44
2023-03-11T21:49:13.228Z,100314.59
2023-03-11T21:51:39.691Z,100312.84
2023-03-11T21:54:06.316Z,100312.22
2023-03-11T21:56:32.873Z,100314.69
2023-03-11T21:58:59.299Z,100319.66
2023-03-11T22:01:25.859Z,100311.56
2023-03-11T22:03:52.478Z,100313.00
2023-03-11T22:06:19.109Z,100320.72
2023-03-11T22:08:45.604Z,100313.13
2023-03-11T22:11:17.582Z,100320.63
2023-03-11T22:13:46.680Z,100316.41
2023-03-11T22:16:13.853Z,100327.03
2023-03-11T22:18:40.551Z,100316.34
2023-03-11T22:21:09.373Z,100317.63
2023-03-11T22:23:36.868Z,100320.63
2023-03-11T22:26:03.529Z,100315.81
2023-03-11T22:28:30.855Z,100314.97
2023-03-11T22:30:57.326Z,100312.50
2023-03-11T22:33:23.920Z,100330.53
2023-03-11T22:35:53.383Z,100323.47
2023-03-11T22:38:20.063Z,100328.84
2023-03-11T22:40:46.549Z,100327.59
2023-03-11T22:43:13.254Z,100331.34
2023-03-11T22:45:39.884Z,100328.03
2023-03-11T22:48:06.809Z,100330.28
2023-03-11T22:50:33.266Z,100329.16
2023-03-11T22:52:59.888Z,100332.97
2023-03-11T22:55:26.414Z,100328.44
2023-03-11T22:57:52.932Z,100331.31
2023-03-11T23:00:22.062Z,100337.28
2023-03-11T23:02:53.217Z,100326.78
2023-03-11T23:05:19.965Z,100321.97
2023-03-11T23:07:46.483Z,100328.91
2023-03-11T23:10:14.592Z,100324.41
2023-03-11T23:12:41.675Z,100327.88
2023-03-11T23:15:11.261Z,100334.66
2023-03-11T23:17:37.711Z,100323.56
2023-03-11T23:20:05.876Z,100330.13
2023-03-11T23:22:35.776Z,100328.03
2023-03-11T23:25:04.588Z,100327.59
2023-03-11T23:27:31.231Z,100330.94
2023-03-11T23:29:57.666Z,100327.38
2023-03-11T23:32:24.166Z,100330.00
2023-03-11T23:34:50.666Z,100332.34
2023-03-11T23:37:17.160Z,100332.78
2023-03-11T23:39:43.630Z,100339.28
2023-03-11T23:42:24.490Z,100347.94
2023-03-11T23:44:52.316Z,100337.72
2023-03-11T23:47:18.820Z,100346.59
2023-03-11T23:49:45.214Z,100350.25
2023-03-11T23:52:11.727Z,100350.31
2023-03-11T23:54:38.220Z,100357.38
2023-03-11T23:57:04.720Z,100356.81
2023-03-11T23:59:31.193Z,100348.47
